Time;durP1;ratioP1;P1;durP2;ratioP2;P2;SDS_P1;SDS_P2;PMS_P1;PMS_P2;Temp;Humidity;BMP_temperature;BMP_pressure;BME280_temperature;BME280_humidity;BME280_pressure;Samples;Min_cycle;Max_cycle;Signal;HPM_P1;HPM_P2
2022/11/13 00:00:28;;;;;;;3.35;0.90;;;;;;;;;;6265290;22;20111;-83
2022/11/13 00:03:12;;;;;;;7.07;1.88;;;;;;;;;;6264844;22;20051;-82
2022/11/13 00:06:00;;;;;;;3.72;0.90;;;;;;;;;;6265751;22;20055;-83
2022/11/13 00:08:44;;;;;;;3.13;0.80;;;;;;;;;;6265233;22;20070;-82
2022/11/13 00:11:28;;;;;;;3.13;1.00;;;;;;;;;;6244194;23;20023;-83
2022/11/13 00:14:11;;;;;;;2.40;0.80;;;;;;;;;;6264985;22;20019;-84
2022/11/13 00:16:55;;;;;;;5.43;0.93;;;;;;;;;;6265023;22;20088;-83
2022/11/13 00:19:40;;;;;;;5.10;1.10;;;;;;;;;;6245285;23;20020;-84
2022/11/13 00:22:24;;;;;;;4.00;1.13;;;;;;;;;;6264889;22;20443;-84
2022/11/13 00:25:08;;;;;;;3.50;0.85;;;;;;;;;;6244105;23;20027;-84
2022/11/13 00:27:52;;;;;;;2.83;0.77;;;;;;;;;;6264810;22;20796;-83
2022/11/13 00:30:36;;;;;;;1.35;0.68;;;;;;;;;;6244079;23;20107;-83
2022/11/13 00:33:20;;;;;;;4.45;0.90;;;;;;;;;;6264961;22;20039;-82
2022/11/13 00:36:05;;;;;;;4.53;0.90;;;;;;;;;;6264735;22;20027;-83
2022/11/13 00:38:49;;;;;;;4.28;0.90;;;;;;;;;;6244077;23;20023;-83
2022/11/13 00:41:32;;;;;;;5.43;0.95;;;;;;;;;;6266911;22;20413;-82
2022/11/13 00:44:16;;;;;;;2.88;0.93;;;;;;;;;;6246472;23;20348;-82
2022/11/13 00:47:00;;;;;;;2.25;0.75;;;;;;;;;;6245177;23;20359;-82
2022/11/13 00:49:44;;;;;;;3.67;1.00;;;;;;;;;;6244842;23;20402;-83
2022/11/13 00:52:29;;;;;;;4.22;1.00;;;;;;;;;;6267402;22;20054;-83
2022/11/13 00:55:13;;;;;;;3.38;0.70;;;;;;;;;;6266848;22;20027;-83
2022/11/13 00:57:57;;;;;;;2.65;0.85;;;;;;;;;;6266384;22;20054;-83
2022/11/13 01:00:42;;;;;;;2.08;0.85;;;;;;;;;;6266106;22;20050;-82
2022/11/13 01:03:25;;;;;;;2.80;1.00;;;;;;;;;;6244926;23;20082;-83
2022/11/13 01:06:13;;;;;;;2.03;0.80;;;;;;;;;;6246126;23;20407;-83
2022/11/13 01:08:58;;;;;;;3.60;0.77;;;;;;;;;;6265933;22;20074;-83
2022/11/13 01:11:42;;;;;;;3.40;0.70;;;;;;;;;;6266418;22;20027;-83
2022/11/13 01:14:26;;;;;;;2.13;0.77;;;;;;;;;;6245034;23;20054;-82
2022/11/13 01:17:10;;;;;;;3.08;0.80;;;;;;;;;;6265875;22;20039;-83
2022/11/13 01:19:54;;;;;;;2.10;0.77;;;;;;;;;;6244737;23;20491;-83
2022/11/13 01:22:38;;;;;;;2.78;0.82;;;;;;;;;;6266128;22;20023;-83
2022/11/13 01:25:22;;;;;;;2.55;1.00;;;;;;;;;;6266039;22;20019;-83
2022/11/13 01:28:06;;;;;;;2.75;0.93;;;;;;;;;;6265510;22;20019;-83
2022/11/13 01:30:50;;;;;;;2.17;0.73;;;;;;;;;;6266039;22;20019;-83
2022/11/13 01:33:34;;;;;;;2.97;0.68;;;;;;;;;;6266021;22;20101;-83
2022/11/13 01:36:19;;;;;;;3.33;1.30;;;;;;;;;;6265318;22;20364;-83
2022/11/13 01:39:02;;;;;;;5.53;1.20;;;;;;;;;;6265913;22;20150;-83
2022/11/13 01:41:46;;;;;;;3.40;0.80;;;;;;;;;;6265867;22;20356;-83
2022/11/13 01:44:46;;;;;;;4.82;0.80;;;;;;;;;;6265452;22;20102;-83
2022/11/13 01:47:30;;;;;;;2.60;0.70;;;;;;;;;;6245069;23;20050;-83
2022/11/13 01:50:14;;;;;;;2.63;1.02;;;;;;;;;;6245036;23;20058;-83
2022/11/13 01:52:58;;;;;;;3.50;0.80;;;;;;;;;;6265437;22;20023;-83
2022/11/13 01:55:42;;;;;;;2.58;0.80;;;;;;;;;;6265488;22;20103;-83
2022/11/13 01:58:26;;;;;;;3.75;0.90;;;;;;;;;;6265638;22;20031;-84
2022/11/13 02:01:10;;;;;;;1.38;0.65;;;;;;;;;;6265082;22;20085;-84
2022/11/13 02:03:54;;;;;;;6.00;1.38;;;;;;;;;;6265756;22;20474;-84
2022/11/13 02:06:40;;;;;;;1.95;0.60;;;;;;;;;;6243993;23;20025;-84
2022/11/13 02:09:38;;;;;;;4.00;0.83;;;;;;;;;;6243640;23;20019;-84
2022/11/13 02:12:48;;;;;;;2.97;0.77;;;;;;;;;;6265288;22;20242;-83
2022/11/13 02:15:32;;;;;;;2.25;0.73;;;;;;;;;;6244879;23;20097;-83
2022/11/13 02:18:17;;;;;;;3.78;0.93;;;;;;;;;;6265052;22;20066;-83
2022/11/13 02:21:04;;;;;;;2.90;0.70;;;;;;;;;;6265819;22;20411;-83
2022/11/13 02:23:48;;;;;;;;;;;;;;;;;;6245000;23;20418;-83
2022/11/13 02:26:32;;;;;;;3.20;0.90;;;;;;;;;;6244013;23;19939;-83
2022/11/13 02:29:16;;;;;;;1.45;0.60;;;;;;;;;;6265107;22;20107;-83
2022/11/13 02:32:00;;;;;;;3.33;1.00;;;;;;;;;;6264850;22;20026;-83
2022/11/13 02:34:44;;;;;;;1.92;0.60;;;;;;;;;;6265529;22;20027;-83
2022/11/13 02:37:28;;;;;;;4.07;1.00;;;;;;;;;;6265333;22;20022;-83
2022/11/13 02:40:12;;;;;;;2.35;0.70;;;;;;;;;;6244211;23;20065;-83
2022/11/13 02:42:56;;;;;;;1.80;0.77;;;;;;;;;;6264992;22;20023;-83
2022/11/13 02:45:40;;;;;;;1.88;0.70;;;;;;;;;;6243958;23;20046;-83
2022/11/13 02:48:24;;;;;;;2.40;0.75;;;;;;;;;;6265191;22;20083;-83
2022/11/13 02:51:08;;;;;;;3.45;0.90;;;;;;;;;;6265149;22;20558;-83
2022/11/13 02:53:52;;;;;;;3.80;0.90;;;;;;;;;;6265153;22;20154;-83
2022/11/13 02:56:36;;;;;;;3.15;1.00;;;;;;;;;;6264823;22;20023;-83
2022/11/13 02:59:20;;;;;;;2.33;0.80;;;;;;;;;;6264905;22;20047;-83
2022/11/13 03:02:04;;;;;;;2.83;0.85;;;;;;;;;;6242695;23;20078;-83
2022/11/13 03:04:47;;;;;;;4.47;0.90;;;;;;;;;;6244808;23;20023;-83
2022/11/13 03:07:31;;;;;;;3.80;0.88;;;;;;;;;;6244119;23;20043;-83
2022/11/13 03:10:15;;;;;;;4.05;0.95;;;;;;;;;;6242997;23;20022;-83
2022/11/13 03:12:59;;;;;;;3.80;0.80;;;;;;;;;;6265811;22;20070;-84
2022/11/13 03:15:43;;;;;;;3.47;0.80;;;;;;;;;;6265257;22;20026;-83
2022/11/13 03:18:28;;;;;;;3.65;0.90;;;;;;;;;;6244007;23;20138;-83
2022/11/13 03:21:12;;;;;;;4.95;0.88;;;;;;;;;;6265150;22;20504;-83
2022/11/13 03:23:57;;;;;;;2.38;0.85;;;;;;;;;;6264904;22;20047;-83
2022/11/13 03:26:41;;;;;;;3.15;0.80;;;;;;;;;;6244256;23;20023;-83
2022/11/13 03:29:25;;;;;;;1.85;0.73;;;;;;;;;;6264757;22;20073;-83
2022/11/13 03:32:08;;;;;;;3.67;0.82;;;;;;;;;;6265358;22;20478;-83
2022/11/13 03:34:52;;;;;;;2.40;0.77;;;;;;;;;;6265880;22;20027;-84
2022/11/13 03:37:36;;;;;;;2.65;0.85;;;;;;;;;;6243740;23;20474;-83
2022/11/13 03:40:20;;;;;;;2.05;0.80;;;;;;;;;;6243466;23;20479;-83
2022/11/13 03:43:04;;;;;;;3.10;1.00;;;;;;;;;;6264107;22;20150;-83
2022/11/13 03:45:48;;;;;;;3.75;1.42;;;;;;;;;;6265048;22;20023;-83
2022/11/13 03:48:32;;;;;;;3.92;1.10;;;;;;;;;;6265177;22;20078;-84
2022/11/13 03:51:16;;;;;;;5.75;0.80;;;;;;;;;;6243707;23;20069;-84
2022/11/13 03:54:00;;;;;;;1.88;0.70;;;;;;;;;;6264459;22;20103;-83
2022/11/13 03:56:44;;;;;;;1.70;0.70;;;;;;;;;;6242624;23;20023;-83
2022/11/13 03:59:29;;;;;;;3.28;1.17;;;;;;;;;;6243934;22;20034;-84
2022/11/13 04:02:13;;;;;;;10.02;0.90;;;;;;;;;;6243976;23;20670;-83
2022/11/13 04:04:57;;;;;;;4.70;0.90;;;;;;;;;;6244383;23;20073;-84
2022/11/13 04:07:41;;;;;;;2.72;0.90;;;;;;;;;;6244300;23;20119;-83
2022/11/13 04:10:25;;;;;;;2.28;0.63;;;;;;;;;;6244508;23;20088;-83
2022/11/13 04:13:09;;;;;;;3.97;0.80;;;;;;;;;;6264395;22;20023;-83
2022/11/13 04:15:53;;;;;;;4.20;0.90;;;;;;;;;;6243482;23;20023;-83
2022/11/13 04:18:37;;;;;;;4.30;0.90;;;;;;;;;;6263860;22;20466;-83
2022/11/13 04:21:21;;;;;;;5.70;1.02;;;;;;;;;;6242514;23;20023;-84
2022/11/13 04:24:05;;;;;;;3.72;1.23;;;;;;;;;;6243873;23;20398;-84
2022/11/13 04:26:49;;;;;;;2.72;0.60;;;;;;;;;;6264471;22;20073;-85
2022/11/13 04:29:33;;;;;;;4.00;0.98;;;;;;;;;;6243922;23;20083;-84
2022/11/13 04:32:17;;;;;;;3.35;0.77;;;;;;;;;;6264376;22;20689;-84
2022/11/13 04:35:01;;;;;;;5.10;0.75;;;;;;;;;;6242876;23;20107;-84
2022/11/13 04:37:44;;;;;;;3.05;0.80;;;;;;;;;;6264215;22;20059;-84
2022/11/13 04:40:29;;;;;;;2.75;0.80;;;;;;;;;;6264398;22;20352;-84
2022/11/13 04:43:12;;;;;;;2.05;0.75;;;;;;;;;;6264197;22;20027;-84
2022/11/13 04:45:56;;;;;;;2.95;0.93;;;;;;;;;;6264789;22;20038;-84
2022/11/13 04:48:40;;;;;;;2.00;0.80;;;;;;;;;;6264619;22;20066;-84
2022/11/13 04:51:24;;;;;;;1.25;0.60;;;;;;;;;;6264163;22;20086;-84
2022/11/13 04:54:08;;;;;;;2.65;0.80;;;;;;;;;;6243529;23;20023;-84
2022/11/13 04:56:52;;;;;;;2.20;0.80;;;;;;;;;;6265515;22;20075;-84
2022/11/13 04:59:36;;;;;;;6.25;1.80;;;;;;;;;;6244141;22;20066;-84
2022/11/13 05:02:20;;;;;;;2.75;0.80;;;;;;;;;;6244319;23;20359;-85
2022/11/13 05:05:04;;;;;;;2.47;0.68;;;;;;;;;;6242985;23;20019;-83
2022/11/13 05:07:48;;;;;;;1.75;0.60;;;;;;;;;;6265647;22;20451;-85
2022/11/13 05:10:32;;;;;;;1.85;0.68;;;;;;;;;;6265466;22;20020;-85
2022/11/13 05:13:16;;;;;;;3.40;1.00;;;;;;;;;;6243525;23;20070;-84
2022/11/13 05:16:03;;;;;;;2.33;0.85;;;;;;;;;;6265374;22;20083;-84
2022/11/13 05:18:47;;;;;;;4.20;1.33;;;;;;;;;;6265529;22;20486;-86
2022/11/13 05:21:32;;;;;;;4.18;0.95;;;;;;;;;;6265513;22;20070;-84
2022/11/13 05:24:16;;;;;;;3.70;0.88;;;;;;;;;;6245522;23;20092;-85
2022/11/13 05:27:00;;;;;;;2.72;1.00;;;;;;;;;;6267556;22;20019;-84
2022/11/13 05:29:44;;;;;;;6.80;1.10;;;;;;;;;;6267083;22;20138;-86
2022/11/13 05:32:28;;;;;;;6.47;1.10;;;;;;;;;;6267352;22;20411;-86
2022/11/13 05:35:12;;;;;;;1.23;0.45;;;;;;;;;;6267118;22;20065;-85
2022/11/13 05:37:58;;;;;;;3.20;1.17;;;;;;;;;;6246896;23;20127;-85
2022/11/13 05:40:43;;;;;;;3.83;0.73;;;;;;;;;;6247183;23;20023;-84
2022/11/13 05:43:27;;;;;;;2.88;0.73;;;;;;;;;;6267850;22;20495;-84
2022/11/13 05:46:15;;;;;;;3.00;1.00;;;;;;;;;;6246449;23;20050;-84
2022/11/13 05:49:00;;;;;;;2.63;0.80;;;;;;;;;;6246724;23;20066;-84
2022/11/13 05:51:44;;;;;;;1.45;0.60;;;;;;;;;;6267378;22;20411;-86
2022/11/13 05:54:28;;;;;;;3.92;0.82;;;;;;;;;;6246594;23;20019;-83
2022/11/13 05:57:12;;;;;;;3.22;0.60;;;;;;;;;;6267378;22;20483;-83
2022/11/13 05:59:56;;;;;;;2.22;0.70;;;;;;;;;;6266508;22;20027;-85
2022/11/13 06:02:40;;;;;;;2.53;0.85;;;;;;;;;;6244654;23;20030;-85
2022/11/13 06:05:24;;;;;;;2.03;0.70;;;;;;;;;;6246559;23;20035;-85
2022/11/13 06:08:08;;;;;;;3.15;0.80;;;;;;;;;;6245413;23;20023;-86
2022/11/13 06:10:52;;;;;;;2.70;0.98;;;;;;;;;;6246431;23;20023;-84
2022/11/13 06:13:36;;;;;;;3.72;0.80;;;;;;;;;;6266746;22;20027;-84
2022/11/13 06:16:27;;;;;;;4.60;1.17;;;;;;;;;;6267040;22;20027;-85
2022/11/13 06:19:11;;;;;;;2.53;0.85;;;;;;;;;;6266512;22;20023;-85
2022/11/13 06:21:55;;;;;;;2.35;1.10;;;;;;;;;;6266939;22;20023;-84
2022/11/13 06:24:39;;;;;;;2.33;0.75;;;;;;;;;;6245904;23;20471;-85
2022/11/13 06:27:23;;;;;;;2.40;0.85;;;;;;;;;;6265757;22;20416;-85
2022/11/13 06:30:07;;;;;;;1.88;0.60;;;;;;;;;;6244401;23;20089;-84
2022/11/13 06:32:52;;;;;;;2.47;0.65;;;;;;;;;;6265657;22;20501;-85
2022/11/13 06:35:36;;;;;;;1.58;0.60;;;;;;;;;;6265734;22;20050;-84
2022/11/13 06:38:20;;;;;;;2.72;1.08;;;;;;;;;;6245130;23;20108;-85
2022/11/13 06:41:04;;;;;;;1.67;0.60;;;;;;;;;;6265630;22;20077;-85
2022/11/13 06:43:48;;;;;;;4.68;0.80;;;;;;;;;;6265906;22;20103;-85
2022/11/13 06:46:33;;;;;;;0.98;0.60;;;;;;;;;;6266070;22;20023;-85
2022/11/13 06:49:17;;;;;;;1.40;0.40;;;;;;;;;;6266679;22;20022;-85
2022/11/13 06:52:01;;;;;;;0.93;0.50;;;;;;;;;;6266720;22;20027;-85
2022/11/13 06:54:45;;;;;;;4.80;0.90;;;;;;;;;;6266578;22;20070;-86
2022/11/13 06:57:29;;;;;;;2.63;0.82;;;;;;;;;;6265570;22;20023;-86
2022/11/13 07:00:13;;;;;;;2.90;0.80;;;;;;;;;;6246001;22;20034;-83
2022/11/13 07:02:57;;;;;;;2.60;0.90;;;;;;;;;;6244594;23;20612;-84
2022/11/13 07:05:41;;;;;;;1.55;0.80;;;;;;;;;;6246862;23;20078;-85
2022/11/13 07:08:25;;;;;;;3.08;0.80;;;;;;;;;;6267051;22;20023;-84
2022/11/13 07:11:10;;;;;;;2.70;0.63;;;;;;;;;;6246597;23;20023;-85
2022/11/13 07:13:54;;;;;;;3.13;0.80;;;;;;;;;;6267105;22;20046;-84
2022/11/13 07:16:38;;;;;;;3.55;1.17;;;;;;;;;;6266327;22;20042;-84
2022/11/13 07:19:22;;;;;;;4.80;0.60;;;;;;;;;;6267293;22;20027;-85
2022/11/13 07:22:06;;;;;;;1.85;0.77;;;;;;;;;;6246252;23;20027;-85
2022/11/13 07:24:50;;;;;;;3.80;0.88;;;;;;;;;;6267909;22;20054;-87
2022/11/13 07:27:33;;;;;;;1.98;0.80;;;;;;;;;;6246865;23;20023;-86
2022/11/13 07:30:18;;;;;;;2.50;0.75;;;;;;;;;;6246499;23;20159;-84
2022/11/13 07:33:02;;;;;;;1.77;0.60;;;;;;;;;;6246827;23;20109;-87
2022/11/13 07:35:46;;;;;;;3.20;0.68;;;;;;;;;;6268465;22;20347;-86
2022/11/13 07:38:30;;;;;;;4.72;1.00;;;;;;;;;;6267028;22;20096;-85
2022/11/13 07:41:14;;;;;;;3.72;0.85;;;;;;;;;;6267873;22;20023;-86
2022/11/13 07:43:58;;;;;;;3.88;0.80;;;;;;;;;;6267415;22;20073;-85
2022/11/13 07:46:42;;;;;;;4.60;1.17;;;;;;;;;;6266937;22;20019;-85
2022/11/13 07:49:26;;;;;;;2.42;0.70;;;;;;;;;;6265881;22;20094;-85
2022/11/13 07:52:10;;;;;;;1.48;0.60;;;;;;;;;;6265442;22;20047;-86
2022/11/13 07:54:54;;;;;;;2.15;0.60;;;;;;;;;;6265721;22;20043;-86
2022/11/13 07:57:38;;;;;;;3.22;0.60;;;;;;;;;;6245078;23;20027;-85
2022/11/13 08:00:22;;;;;;;3.85;0.77;;;;;;;;;;6244126;22;20039;-85
2022/11/13 08:03:07;;;;;;;4.90;0.80;;;;;;;;;;6265818;22;20364;-86
2022/11/13 08:05:51;;;;;;;2.25;0.60;;;;;;;;;;6265276;22;20038;-87
2022/11/13 08:08:35;;;;;;;2.88;0.80;;;;;;;;;;6245613;23;20062;-86
2022/11/13 08:11:19;;;;;;;4.38;0.80;;;;;;;;;;6264756;22;20054;-82
2022/11/13 08:14:03;;;;;;;3.13;0.90;;;;;;;;;;6244805;23;20482;-81
2022/11/13 08:16:47;;;;;;;1.65;0.70;;;;;;;;;;6242042;23;20106;-81
2022/11/13 08:19:31;;;;;;;3.17;0.60;;;;;;;;;;6264035;22;20467;-81
2022/11/13 08:22:15;;;;;;;2.83;0.70;;;;;;;;;;6241943;23;20023;-80
2022/11/13 08:24:59;;;;;;;3.95;0.43;;;;;;;;;;6263135;22;20203;-81
2022/11/13 08:27:43;;;;;;;2.60;0.90;;;;;;;;;;6263592;22;20019;-82
2022/11/13 08:30:27;;;;;;;5.25;0.80;;;;;;;;;;6262867;22;20525;-79
2022/11/13 08:33:10;;;;;;;3.33;0.90;;;;;;;;;;6263196;22;20027;-80
2022/11/13 08:35:55;;;;;;;3.65;0.88;;;;;;;;;;6241424;23;20082;-80
2022/11/13 08:38:39;;;;;;;4.28;0.70;;;;;;;;;;6242450;23;20024;-80
2022/11/13 08:41:23;;;;;;;1.80;0.90;;;;;;;;;;6263226;22;20059;-81
2022/11/13 08:44:07;;;;;;;1.90;1.00;;;;;;;;;;6262952;22;20030;-80
2022/11/13 08:46:51;;;;;;;1.80;0.63;;;;;;;;;;6263379;22;20019;-80
2022/11/13 08:49:35;;;;;;;1.88;0.60;;;;;;;;;;6263113;22;20498;-81
2022/11/13 08:52:19;;;;;;;2.55;0.75;;;;;;;;;;6263102;22;20051;-81
2022/11/13 08:55:03;;;;;;;3.00;0.68;;;;;;;;;;6241640;23;20082;-81
2022/11/13 08:57:47;;;;;;;1.48;0.55;;;;;;;;;;6263562;22;20103;-81
2022/11/13 09:00:31;;;;;;;0.98;0.47;;;;;;;;;;6262870;22;20034;-81
2022/11/13 09:03:15;;;;;;;1.70;0.65;;;;;;;;;;6264865;22;20094;-81
2022/11/13 09:05:59;;;;;;;1.50;0.65;;;;;;;;;;6265422;22;20474;-81
2022/11/13 09:08:43;;;;;;;0.77;0.57;;;;;;;;;;6265098;22;20023;-81
2022/11/13 09:11:27;;;;;;;5.90;0.88;;;;;;;;;;6266127;22;20122;-81
2022/11/13 09:14:10;;;;;;;2.20;1.00;;;;;;;;;;6245055;23;20066;-80
2022/11/13 09:16:54;;;;;;;2.33;1.00;;;;;;;;;;6265221;22;20050;-80
2022/11/13 09:19:38;;;;;;;3.85;0.88;;;;;;;;;;6244372;23;20027;-80
2022/11/13 09:22:23;;;;;;;1.67;0.60;;;;;;;;;;6264464;22;20352;-79
2022/11/13 09:25:07;;;;;;;2.50;0.90;;;;;;;;;;6265052;22;20585;-82
2022/11/13 09:27:52;;;;;;;2.88;0.77;;;;;;;;;;6244700;23;20054;-81
2022/11/13 09:30:36;;;;;;;1.70;0.93;;;;;;;;;;6265097;22;20022;-81
2022/11/13 09:33:21;;;;;;;5.63;0.73;;;;;;;;;;6264470;22;20380;-81
2022/11/13 09:36:14;;;;;;;1.70;0.70;;;;;;;;;;6265671;22;20023;-81
2022/11/13 09:38:59;;;;;;;3.15;1.40;;;;;;;;;;6264990;22;20026;-81
2022/11/13 09:41:48;;;;;;;4.90;1.08;;;;;;;;;;6244431;23;20122;-80
2022/11/13 09:44:38;;;;;;;3.08;0.77;;;;;;;;;;6264727;22;20023;-81
2022/11/13 09:47:23;;;;;;;2.70;0.90;;;;;;;;;;6264582;22;20023;-80
2022/11/13 09:50:14;;;;;;;6.18;0.88;;;;;;;;;;6264623;22;20402;-80
2022/11/13 09:52:58;;;;;;;1.73;0.90;;;;;;;;;;6264385;22;20027;-81
2022/11/13 09:56:02;;;;;;;2.55;0.80;;;;;;;;;;6243926;23;20115;-81
2022/11/13 09:59:06;;;;;;;3.95;0.80;;;;;;;;;;6265085;22;20030;-82
2022/11/13 10:01:50;;;;;;;4.13;0.77;;;;;;;;;;6264415;22;20360;-81
2022/11/13 10:04:53;;;;;;;0.50;0.40;;;;;;;;;;6242893;23;20462;-82
2022/11/13 10:07:42;;;;;;;1.88;0.80;;;;;;;;;;6244092;23;20081;-82
2022/11/13 10:10:41;;;;;;;1.15;0.60;;;;;;;;;;6263955;22;20021;-81
2022/11/13 10:13:40;;;;;;;3.58;0.80;;;;;;;;;;6264390;22;20031;-82
2022/11/13 10:16:27;;;;;;;1.35;0.60;;;;;;;;;;6243971;23;20403;-82
2022/11/13 10:19:14;;;;;;;5.60;0.80;;;;;;;;;;6264356;22;20023;-81
2022/11/13 10:22:02;;;;;;;2.85;1.05;;;;;;;;;;6263925;22;20031;-82
2022/11/13 10:24:47;;;;;;;1.50;0.60;;;;;;;;;;6264363;22;20098;-79
2022/11/13 10:27:31;;;;;;;2.65;0.60;;;;;;;;;;6264080;22;20019;-81
2022/11/13 10:30:16;;;;;;;2.17;0.52;;;;;;;;;;6244395;23;20107;-81
2022/11/13 10:33:03;;;;;;;1.60;0.55;;;;;;;;;;6264137;22;20107;-80
2022/11/13 10:36:07;;;;;;;1.85;0.55;;;;;;;;;;6263945;22;20094;-81
2022/11/13 10:39:06;;;;;;;2.00;0.80;;;;;;;;;;6263599;22;20026;-80
2022/11/13 10:41:52;;;;;;;2.78;0.73;;;;;;;;;;6243363;23;20415;-79
2022/11/13 10:44:36;;;;;;;3.20;0.73;;;;;;;;;;6244445;23;20023;-80
2022/11/13 10:47:23;;;;;;;2.95;0.70;;;;;;;;;;6243559;23;20023;-80
2022/11/13 10:50:11;;;;;;;2.35;0.65;;;;;;;;;;6264071;22;20096;-80
2022/11/13 10:52:55;;;;;;;4.18;1.00;;;;;;;;;;6243754;23;20034;-82
2022/11/13 10:55:39;;;;;;;1.52;0.68;;;;;;;;;;6242440;23;20027;-82
2022/11/13 10:58:23;;;;;;;2.75;0.85;;;;;;;;;;6264353;22;20027;-80
2022/11/13 11:01:23;;;;;;;2.83;0.80;;;;;;;;;;6243868;23;20055;-81
2022/11/13 11:04:10;;;;;;;1.45;0.68;;;;;;;;;;6265558;22;20030;-81
2022/11/13 11:06:54;;;;;;;2.72;0.73;;;;;;;;;;6265427;22;20107;-80
2022/11/13 11:09:39;;;;;;;1.88;0.50;;;;;;;;;;6265486;22;20376;-82
2022/11/13 11:12:23;;;;;;;3.45;1.10;;;;;;;;;;6265343;22;20067;-81
2022/11/13 11:15:24;;;;;;;4.20;1.38;;;;;;;;;;6265001;22;20031;-80
2022/11/13 11:18:37;;;;;;;2.42;0.70;;;;;;;;;;6264470;22;20031;-82
2022/11/13 11:21:24;;;;;;;2.13;0.90;;;;;;;;;;6236885;22;20114;-81
2022/11/13 11:24:15;;;;;;;2.33;0.80;;;;;;;;;;6243407;23;20460;-82
2022/11/13 11:27:29;;;;;;;4.93;1.17;;;;;;;;;;6265030;22;20023;-83
2022/11/13 11:30:13;;;;;;;1.38;0.77;;;;;;;;;;6236510;22;20023;-82
2022/11/13 11:33:16;;;;;;;5.88;2.25;;;;;;;;;;6245004;23;20027;-82
2022/11/13 11:36:03;;;;;;;2.40;0.80;;;;;;;;;;6245082;23;20475;-82
2022/11/13 11:38:47;;;;;;;;;;;;;;;;;;6244638;23;20465;-81
2022/11/13 11:41:33;;;;;;;2.00;0.70;;;;;;;;;;6244484;23;19914;-82
2022/11/13 11:44:20;;;;;;;2.50;0.80;;;;;;;;;;6265239;22;20027;-82
2022/11/13 11:47:07;;;;;;;2.35;0.82;;;;;;;;;;6265234;22;20073;-83
2022/11/13 11:49:51;;;;;;;1.27;0.60;;;;;;;;;;6265353;22;20104;-82
2022/11/13 11:52:50;;;;;;;1.50;0.70;;;;;;;;;;6243464;23;20429;-82
2022/11/13 11:55:38;;;;;;;2.65;0.60;;;;;;;;;;6244779;23;20023;-81
2022/11/13 11:58:21;;;;;;;;;;;;;;;;;;6245457;22;20174;-81
2022/11/13 12:01:13;;;;;;;2.25;0.70;;;;;;;;;;6245406;23;19938;-81
2022/11/13 12:04:00;;;;;;;0.95;0.40;;;;;;;;;;6244211;23;20536;-83
2022/11/13 12:06:44;;;;;;;;;;;;;;;;;;6243324;23;20528;-83
2022/11/13 12:09:32;;;;;;;3.40;0.70;;;;;;;;;;6243316;23;20366;-82
2022/11/13 12:12:37;;;;;;;1.42;0.77;;;;;;;;;;6264700;22;20419;-81
2022/11/13 12:15:21;;;;;;;1.48;0.63;;;;;;;;;;6243622;23;20074;-82
2022/11/13 12:18:08;;;;;;;2.10;0.68;;;;;;;;;;6244445;23;20027;-83
2022/11/13 12:20:58;;;;;;;0.90;0.43;;;;;;;;;;6242805;23;20103;-81
2022/11/13 12:23:42;;;;;;;2.75;0.43;;;;;;;;;;6264377;22;20475;-82
2022/11/13 12:26:29;;;;;;;1.70;0.60;;;;;;;;;;6243389;23;20042;-82
2022/11/13 12:29:13;;;;;;;;;;;;;;;;;;6243822;23;20386;-83
2022/11/13 12:32:01;;;;;;;4.15;0.88;;;;;;;;;;6244346;23;20003;-84
2022/11/13 12:34:47;;;;;;;2.85;0.57;;;;;;;;;;6265751;22;20019;-82
2022/11/13 12:37:31;;;;;;;3.58;0.60;;;;;;;;;;6266223;22;20038;-82
2022/11/13 12:40:30;;;;;;;2.17;0.52;;;;;;;;;;6245697;23;20466;-83
2022/11/13 12:43:14;;;;;;;2.35;0.60;;;;;;;;;;6268057;22;20050;-83
2022/11/13 12:45:59;;;;;;;1.30;0.50;;;;;;;;;;6247546;23;20109;-83
2022/11/13 12:48:44;;;;;;;1.77;0.60;;;;;;;;;;6267111;22;20023;-83
2022/11/13 12:51:38;;;;;;;2.70;0.90;;;;;;;;;;6267403;22;20551;-82
2022/11/13 12:54:25;;;;;;;3.42;0.65;;;;;;;;;;6245951;23;20078;-84
2022/11/13 12:57:12;;;;;;;1.10;0.80;;;;;;;;;;6246798;22;20022;-84
2022/11/13 12:59:56;;;;;;;2.00;0.70;;;;;;;;;;6246906;22;20105;-84
2022/11/13 13:02:59;;;;;;;2.03;0.50;;;;;;;;;;6246686;23;20086;-83
2022/11/13 13:05:52;;;;;;;3.30;0.70;;;;;;;;;;6245005;23;20038;-79
2022/11/13 13:08:47;;;;;;;4.07;0.90;;;;;;;;;;6246347;23;20070;-80
2022/11/13 13:11:34;;;;;;;3.53;0.90;;;;;;;;;;6245960;23;20062;-81
2022/11/13 13:14:29;;;;;;;3.95;1.23;;;;;;;;;;6246331;23;20463;-79
2022/11/13 13:17:12;;;;;;;5.50;0.98;;;;;;;;;;6245813;23;20073;-83
2022/11/13 13:20:00;;;;;;;5.30;1.30;;;;;;;;;;6246359;23;20598;-81
2022/11/13 13:22:53;;;;;;;2.50;0.68;;;;;;;;;;6266162;22;20042;-78
2022/11/13 13:25:37;;;;;;;1.80;0.50;;;;;;;;;;6266416;22;20107;-81
2022/11/13 13:28:22;;;;;;;1.70;0.60;;;;;;;;;;6265915;22;20086;-81
2022/11/13 13:31:12;;;;;;;2.80;0.63;;;;;;;;;;6246193;23;20034;-83
2022/11/13 13:33:58;;;;;;;1.17;0.50;;;;;;;;;;6244838;23;20066;-80
2022/11/13 13:36:43;;;;;;;;;;;;;;;;;;6246354;23;20077;-81
2022/11/13 13:39:30;;;;;;;3.72;1.27;;;;;;;;;;6244623;23;20335;-82
2022/11/13 13:42:24;;;;;;;2.67;0.80;;;;;;;;;;6266693;22;20121;-81
2022/11/13 13:45:14;;;;;;;2.53;1.00;;;;;;;;;;6266582;22;20019;-81
2022/11/13 13:47:58;;;;;;;1.88;1.02;;;;;;;;;;6246142;23;20034;-81
2022/11/13 13:50:46;;;;;;;1.35;0.70;;;;;;;;;;6267081;22;20080;-82
2022/11/13 13:53:30;;;;;;;1.52;0.73;;;;;;;;;;6266200;22;20340;-80
2022/11/13 13:56:14;;;;;;;1.00;0.65;;;;;;;;;;6245811;23;20047;-81
2022/11/13 13:58:59;;;;;;;4.22;0.85;;;;;;;;;;6245244;22;20026;-81
2022/11/13 14:01:51;;;;;;;3.47;0.70;;;;;;;;;;6245258;23;20479;-80
2022/11/13 14:04:41;;;;;;;1.27;0.60;;;;;;;;;;6264628;22;20082;-80
2022/11/13 14:07:26;;;;;;;1.27;0.70;;;;;;;;;;6265527;22;20070;-81
2022/11/13 14:10:14;;;;;;;1.30;0.70;;;;;;;;;;6265524;22;20035;-80
2022/11/13 14:12:58;;;;;;;1.23;0.60;;;;;;;;;;6264673;22;20360;-81
2022/11/13 14:15:42;;;;;;;1.92;0.80;;;;;;;;;;6265447;22;20023;-81
2022/11/13 14:18:26;;;;;;;1.73;0.88;;;;;;;;;;6243733;23;20692;-80
2022/11/13 14:21:14;;;;;;;0.50;0.45;;;;;;;;;;6245546;23;20050;-80
2022/11/13 14:24:00;;;;;;;0.77;0.50;;;;;;;;;;6245668;23;20368;-81
2022/11/13 14:26:44;;;;;;;0.90;0.60;;;;;;;;;;6245081;23;20078;-81
2022/11/13 14:29:30;;;;;;;1.33;0.70;;;;;;;;;;6265539;22;20023;-80
2022/11/13 14:32:28;;;;;;;2.92;0.88;;;;;;;;;;6245224;23;20055;-80
2022/11/13 14:35:19;;;;;;;3.63;0.55;;;;;;;;;;6265772;22;20023;-85
2022/11/13 14:38:03;;;;;;;4.18;0.80;;;;;;;;;;6265124;22;20108;-76
2022/11/13 14:40:47;;;;;;;2.03;0.90;;;;;;;;;;6245471;23;20149;-79
2022/11/13 14:43:31;;;;;;;2.17;0.80;;;;;;;;;;6265873;22;20432;-79
2022/11/13 14:46:46;;;;;;;2.50;0.60;;;;;;;;;;6265393;22;20405;-77
2022/11/13 14:49:31;;;;;;;3.45;1.05;;;;;;;;;;6237047;22;20019;-77
2022/11/13 14:52:19;;;;;;;1.42;0.70;;;;;;;;;;6266128;22;20026;-78
2022/11/13 14:55:04;;;;;;;3.72;0.77;;;;;;;;;;6266142;22;20106;-78
2022/11/13 14:57:48;;;;;;;3.15;0.70;;;;;;;;;;6245241;23;20482;-77
2022/11/13 15:00:34;;;;;;;3.50;0.70;;;;;;;;;;6265776;22;20077;-77
2022/11/13 15:03:17;;;;;;;3.65;0.75;;;;;;;;;;6245725;23;20027;-78
2022/11/13 15:06:01;;;;;;;2.45;0.80;;;;;;;;;;6245541;23;20039;-78
2022/11/13 15:08:45;;;;;;;2.13;0.70;;;;;;;;;;6245252;23;20120;-77
2022/11/13 15:11:30;;;;;;;4.20;1.40;;;;;;;;;;6222533;23;20019;-77
2022/11/13 15:14:14;;;;;;;5.28;0.82;;;;;;;;;;6222492;23;20404;-78
2022/11/13 15:16:59;;;;;;;3.33;1.02;;;;;;;;;;6244751;23;20031;-78
2022/11/13 15:19:42;;;;;;;2.33;0.95;;;;;;;;;;6222378;23;20023;-77
2022/11/13 15:22:26;;;;;;;2.30;0.85;;;;;;;;;;6222433;23;20419;-78
2022/11/13 15:25:14;;;;;;;3.33;0.70;;;;;;;;;;6245128;23;20022;-78
2022/11/13 15:27:58;;;;;;;4.43;0.90;;;;;;;;;;6222659;23;20023;-77
2022/11/13 15:30:42;;;;;;;1.52;0.70;;;;;;;;;;6245232;23;20070;-78
2022/11/13 15:33:26;;;;;;;2.58;1.05;;;;;;;;;;6222318;23;20026;-78
2022/11/13 15:36:10;;;;;;;0.73;0.43;;;;;;;;;;6222201;23;20340;-80
2022/11/13 15:38:54;;;;;;;1.88;0.80;;;;;;;;;;6222172;23;20360;-81
2022/11/13 15:41:38;;;;;;;1.90;0.70;;;;;;;;;;6222567;23;20399;-80
2022/11/13 15:44:22;;;;;;;1.95;0.60;;;;;;;;;;6222386;23;20062;-79
2022/11/13 15:47:26;;;;;;;0.77;0.60;;;;;;;;;;6245086;23;20020;-80
2022/11/13 15:50:10;;;;;;;3.92;0.73;;;;;;;;;;6245106;23;20517;-81
2022/11/13 15:52:54;;;;;;;2.65;0.70;;;;;;;;;;6222269;23;20467;-81
2022/11/13 15:55:38;;;;;;;1.60;0.70;;;;;;;;;;6245212;23;20411;-81
2022/11/13 15:58:22;;;;;;;0.93;0.60;;;;;;;;;;6200943;22;20459;-81
2022/11/13 16:01:08;;;;;;;1.25;0.57;;;;;;;;;;6244410;23;20035;-80
2022/11/13 16:03:51;;;;;;;1.67;0.55;;;;;;;;;;6264517;22;20149;-80
2022/11/13 16:06:35;;;;;;;1.08;0.70;;;;;;;;;;6265393;22;20356;-81
2022/11/13 16:09:19;;;;;;;2.20;0.60;;;;;;;;;;6244463;23;20019;-80
2022/11/13 16:12:03;;;;;;;0.98;0.50;;;;;;;;;;6244505;23;20023;-80
2022/11/13 16:14:47;;;;;;;0.93;0.50;;;;;;;;;;6265264;22;20410;-81
2022/11/13 16:17:31;;;;;;;3.47;0.80;;;;;;;;;;6265300;22;20352;-81
2022/11/13 16:20:15;;;;;;;5.35;0.85;;;;;;;;;;6243720;23;20023;-81
2022/11/13 16:22:59;;;;;;;4.45;1.42;;;;;;;;;;6265280;22;20102;-80
2022/11/13 16:25:47;;;;;;;2.03;0.80;;;;;;;;;;6265679;22;20022;-81
2022/11/13 16:28:31;;;;;;;1.00;0.55;;;;;;;;;;6265638;22;20023;-80
2022/11/13 16:31:14;;;;;;;1.75;0.60;;;;;;;;;;6245165;23;20074;-81
2022/11/13 16:33:59;;;;;;;2.83;0.73;;;;;;;;;;6244824;23;20026;-79
2022/11/13 16:36:42;;;;;;;1.48;0.70;;;;;;;;;;6265653;22;20023;-79